createdAt,value
2017-12-13T00:03:37.434Z,1005.19
2017-12-13T00:13:35.204Z,1005.12
2017-12-13T00:23:35.265Z,1005.09
2017-12-13T00:33:35.219Z,1004.88
2017-12-13T00:43:35.272Z,1004.79
2017-12-13T00:53:35.235Z,1004.68
2017-12-13T01:03:35.308Z,1004.59
2017-12-13T01:13:35.260Z,1004.45
2017-12-13T01:23:35.323Z,1004.32
2017-12-13T01:33:35.301Z,1004.38
2017-12-13T01:43:35.259Z,1004.24
2017-12-13T01:53:35.298Z,1004.26
2017-12-13T02:03:35.276Z,1004.07
2017-12-13T02:13:35.323Z,1003.88
2017-12-13T02:23:35.281Z,1003.77
2017-12-13T02:33:35.353Z,1003.65
2017-12-13T02:43:35.310Z,1003.53
2017-12-13T02:53:35.384Z,1003.34
2017-12-13T03:03:35.339Z,1003.24
2017-12-13T03:13:35.398Z,1003.05
2017-12-13T03:23:35.353Z,1002.89
2017-12-13T03:33:35.324Z,1002.76
2017-12-13T03:43:35.385Z,1002.63
2017-12-13T03:53:35.360Z,1002.42
2017-12-13T04:03:35.419Z,1002.36
2017-12-13T04:13:35.385Z,1002.24
2017-12-13T04:23:35.434Z,1002.18
2017-12-13T04:33:35.384Z,1001.85
2017-12-13T04:43:35.462Z,1001.64
2017-12-13T04:53:35.415Z,1001.46
2017-12-13T05:03:35.385Z,1001.28
2017-12-13T05:13:35.430Z,1001.22
2017-12-13T05:23:35.393Z,1001.05
2017-12-13T05:33:35.455Z,1000.8
2017-12-13T05:43:35.425Z,1000.67
2017-12-13T05:53:35.483Z,1000.51
2017-12-13T06:03:35.444Z,1000.36
2017-12-13T06:13:35.504Z,1000.24
2017-12-13T06:23:35.464Z,999.93
2017-12-13T06:33:35.526Z,999.72
2017-12-13T06:43:35.498Z,999.63
2017-12-13T06:53:35.560Z,999.42
2017-12-13T07:03:35.525Z,999.14
2017-12-13T07:13:35.492Z,998.99
2017-12-13T07:23:35.538Z,998.85
2017-12-13T07:33:35.513Z,998.7
2017-12-13T07:43:35.562Z,998.45
2017-12-13T07:53:35.534Z,998.3
2017-12-13T08:03:35.586Z,998.07
2017-12-13T08:13:35.572Z,997.87
2017-12-13T08:23:35.623Z,997.77
2017-12-13T08:33:35.574Z,997.49
2017-12-13T08:43:35.527Z,997.19
2017-12-13T08:53:35.602Z,996.88
2017-12-13T09:03:35.569Z,996.8
2017-12-13T09:13:35.644Z,996.64
2017-12-13T09:23:35.584Z,996.28
2017-12-13T09:33:35.651Z,996.12
2017-12-13T09:43:36.647Z,995.91
2017-12-13T09:53:36.698Z,995.51
2017-12-13T10:03:35.629Z,995.29
2017-12-13T10:13:35.747Z,995.05
2017-12-13T10:23:35.663Z,994.84
2017-12-13T10:33:35.723Z,994.45
2017-12-13T10:43:36.730Z,994.15
2017-12-13T10:53:35.722Z,993.83
2017-12-13T11:03:35.691Z,993.44
2017-12-13T11:13:35.749Z,993.16
2017-12-13T11:23:35.716Z,992.99
2017-12-13T11:33:35.669Z,992.68
2017-12-13T11:43:35.728Z,992.29
2017-12-13T11:53:35.798Z,992.09
2017-12-13T12:03:35.764Z,991.74
2017-12-13T12:13:35.726Z,991.38
2017-12-13T12:23:35.783Z,990.99
2017-12-13T12:33:35.747Z,990.8
2017-12-13T12:43:35.805Z,990.61
2017-12-13T12:53:35.761Z,990.4
2017-12-13T13:03:35.832Z,990.24
2017-12-13T13:13:35.778Z,990.07
2017-12-13T13:23:36.769Z,989.78
2017-12-13T13:33:35.826Z,989.58
2017-12-13T13:43:35.878Z,989.36
2017-12-13T13:53:35.829Z,989.11
2017-12-13T14:03:35.804Z,988.99
2017-12-13T14:13:35.852Z,988.8
2017-12-13T14:23:35.830Z,988.73
2017-12-13T14:33:35.900Z,988.8
2017-12-13T14:43:35.864Z,988.84
2017-12-13T14:53:35.903Z,988.85
2017-12-13T15:03:35.876Z,988.83
2017-12-13T15:13:35.936Z,988.68
2017-12-13T15:23:35.887Z,988.73
2017-12-13T15:33:35.843Z,988.65
2017-12-13T15:43:35.938Z,988.48
2017-12-13T15:53:35.868Z,988.43
2017-12-13T16:03:36.953Z,988.32
2017-12-13T16:13:35.900Z,988.13
2017-12-13T16:23:35.977Z,988.05
2017-12-13T16:33:35.932Z,987.81
2017-12-13T16:43:35.989Z,987.7
2017-12-13T16:53:35.944Z,987.51
2017-12-13T17:03:36.011Z,987.34
2017-12-13T17:13:35.999Z,986.99
2017-12-13T17:23:36.044Z,986.85
2017-12-13T17:33:35.983Z,986.77
2017-12-13T17:43:35.973Z,986.44
2017-12-13T17:53:36.054Z,986.05
2017-12-13T18:03:35.983Z,985.77
2017-12-13T18:13:36.052Z,985.32
2017-12-13T18:23:36.014Z,985.09
2017-12-13T18:33:36.054Z,984.67
2017-12-13T18:43:36.031Z,984.3
2017-12-13T18:53:36.087Z,984.09
2017-12-13T19:03:36.059Z,983.74
2017-12-13T19:13:36.114Z,983.32
2017-12-13T19:23:36.069Z,982.96
2017-12-13T19:33:36.030Z,982.53
2017-12-13T19:43:36.116Z,982.24
2017-12-13T19:53:36.178Z,981.84
2017-12-13T20:03:36.132Z,981.35
2017-12-13T20:13:36.135Z,981.1
2017-12-13T20:23:36.139Z,980.94
2017-12-13T20:33:36.134Z,980.6
2017-12-13T20:43:36.158Z,980.04
2017-12-13T20:53:36.131Z,979.48
2017-12-13T21:03:36.142Z,978.85
2017-12-13T21:13:36.186Z,978.47
2017-12-13T21:23:36.150Z,978.25
2017-12-13T21:33:37.152Z,978.29
2017-12-13T21:43:36.216Z,978.5
2017-12-13T21:53:36.144Z,978.43
2017-12-13T22:03:36.231Z,978.28
2017-12-13T22:13:36.205Z,977.98
2017-12-13T22:23:36.240Z,977.85
2017-12-13T22:33:36.186Z,977.77
2017-12-13T22:43:36.261Z,978.02
2017-12-13T22:53:36.216Z,978.39
2017-12-13T23:03:36.286Z,978.66
2017-12-13T23:13:36.229Z,978.86
2017-12-13T23:23:36.364Z,979.08
2017-12-13T23:33:36.279Z,979.16
2017-12-13T23:43:36.331Z,979.19
2017-12-13T23:53:36.290Z,979.38
